Mars Hill, Mississippi
Current Conditions -  °F | °C
As of 4:53 PM on Friday 28 Nov 2014 (Local Time) from KMCB Reporting Station
Clear Clear  
Wind Chill: 54°   Ceiling: Unl
Heat Index: 54°   Visibility: 10mi
Dew Point: 29°   Wind: 7mph
Humidity: 38%   Direction: 170°S
Pressure: 30.27"   Gusts: NA
Location:  31.2993°N, 90.4958°W
Report Text: KMCB 282253Z AUTO 17006KT 10SM CLR 12/M02 A3027 RMK AO2 SLP249 T01221017
Loading
Personal Weather Stations






























Interactive Weather Map New forecast layout! Learn more

10-Day Weather Forecast

Advertisements
Track Severe Weather on mobile